Terminal Aerodrome Forecast
Issued by NWS

Home | Current Version | Previous Version | Text Only | Print | Product List | Glossary On
Versions: 1 2 3 4 5 6 7 8 9 10 11 12 13 14 15 16 17 18 19 20
000
FTUS43 KSGF 021720
TAFJLN
TAF
KJLN 021720Z 0218/0318 35007KT P6SM BKN020 OVC040
     FM022300 33008KT P6SM BKN050
     FM030600 34005KT P6SM SCT200
      TEMPO 0309/0312 5SM BR
     FM031200 34006KT P6SM BKN100=

USA.gov is the U.S. government's official web portal to all federal, state and local government web resources and services.